Latest Weather Observations for Tatura

IDV60801

Issued at 6:02 pm EST Tuesday 26 July 2016 (issued every 30 minutes, with the page automatically refreshed every 10 minutes)

About weather observations | Map of weather stations | Latest weather observations for VIC | Other Formats
Station Details ID: 081049 Name: TATURA INST SUSTAINABLE AG Lat: -36.44 Lon: 145.27 Height: 114.0 m
Data from the previous 72 hours. | See also: Recent months at Tatura
Date/Time
EST
Temp
°C
App
Temp
°C
Dew
Point
°C
Rel
Hum
%
Delta-T
°C
Wind Press
QNH
hPa
Press
MSL
hPa
Rain since
9am
mm
Dir  Spd
km/h
Gust
km/h
Spd
kts
Gust
kts
26/06:00pm 7.8 4.8 5.8 87 0.9 N 11 13 6 7 - - 1.4
26/05:30pm 7.9 5.0 6.4 90 0.7 NNW 11 17 6 9 - - 1.4
26/05:00pm 7.9 4.6 6.5 91 0.6 NNW 13 19 7 10 - - 1.4
26/04:30pm 7.7 4.1 6.8 94 0.4 WNW 15 19 8 10 - - 1.4
26/04:00pm 9.0 4.5 5.9 81 1.4 NNW 19 28 10 15 - - 0.4
26/03:30pm 9.2 4.4 5.6 78 1.6 N 20 24 11 13 - - 0.2
26/03:00pm 9.5 4.1 4.5 71 2.2 NNW 22 32 12 17 - - 0.2
26/02:30pm 10.5 4.7 4.6 67 2.7 NNW 24 35 13 19 - - 0.2
26/02:00pm 10.2 4.9 4.8 69 2.4 NNW 22 37 12 20 - - 0.2
26/01:30pm 9.2 4.8 5.0 75 1.9 NW 17 26 9 14 - - 0.2
26/01:00pm 9.6 4.5 4.2 69 2.4 NNW 20 30 11 16 - - 0.0
26/12:30pm 10.4 5.5 5.0 69 2.5 NNW 20 28 11 15 - - 0.0
26/12:00pm 10.5 6.0 6.3 75 2.0 NNW 19 28 10 15 - - 0.0
26/11:30am 9.8 6.3 5.6 75 1.9 NW 13 20 7 11 - - 0.0
26/11:00am 8.8 5.0 5.9 82 1.3 NW 15 20 8 11 - - 0.0
26/10:30am 7.7 3.0 5.3 85 1.1 W 19 26 10 14 - - 0.0
26/10:00am 7.4 3.5 5.4 87 0.9 WNW 15 20 8 11 - - 0.0
26/09:30am 6.7 3.1 5.0 89 0.7 NW 13 19 7 10 - - 0.0
26/09:00am 5.3 1.6 4.3 93 0.4 NNW 13 19 7 10 - - 1.4
26/08:30am 4.4 1.3 3.7 95 0.3 NNW 9 11 5 6 - - 1.4
26/08:00am 3.3 1.0 2.6 95 0.3 NNW 4 9 2 5 - - 1.4
26/07:30am 3.0 -0.3 2.3 95 0.3 N 9 11 5 6 - - 1.4
26/07:00am 3.4 -0.3 2.5 94 0.4 NNW 11 15 6 8 - - 1.4
26/06:30am 3.7 0.1 2.7 93 0.4 NNW 11 13 6 7 - - 1.4
26/06:00am 3.9 -0.1 2.9 93 0.4 NNW 13 15 7 8 - - 1.4
26/05:30am 4.4 -0.3 3.2 92 0.5 NW 17 20 9 11 - - 1.4
26/05:00am 4.2 0.2 3.0 92 0.5 NW 13 17 7 9 - - 1.4
26/04:30am 4.2 0.6 3.0 92 0.5 NW 11 15 6 8 - - 1.4
26/04:00am 4.3 0.7 3.1 92 0.5 NW 11 15 6 8 - - 1.4
26/03:30am 4.5 0.2 3.0 90 0.6 WNW 15 17 8 9 - - 1.4
26/03:00am 4.7 0.4 3.4 91 0.5 NW 15 20 8 11 - - 1.4
26/02:30am 5.3 1.1 3.8 90 0.6 WNW 15 19 8 10 - - 1.4
26/02:00am 6.2 1.8 4.5 89 0.7 WNW 17 24 9 13 - - 1.4
26/01:30am 6.4 2.0 4.9 90 0.7 WNW 17 22 9 12 - - 1.4
26/01:00am 6.6 2.2 4.9 89 0.7 WNW 17 26 9 14 - - 1.4
26/12:30am 7.0 2.0 4.8 86 1.0 WNW 20 28 11 15 - - 1.4
26/12:00am 7.5 2.7 5.5 87 0.9 WNW 20 32 11 17 - - 1.4
 
Date/Time
EST
Temp
°C
App
Temp
°C
Dew
Point
°C
Rel
Hum
%
Delta-T
°C
Wind Press
QNH
hPa
Press
MSL
hPa
Rain since
9am
mm
Dir  Spd
km/h
Gust
km/h
Spd
kts
Gust
kts
25/11:30pm 7.9 2.8 6.0 88 0.9 WNW 22 32 12 17 - - 1.4
25/11:00pm 8.3 3.3 6.4 88 0.9 WNW 22 32 12 17 - - 1.4
25/10:30pm 8.5 3.3 7.3 92 0.6 WNW 24 32 13 17 - - 1.4
25/10:00pm 8.6 4.3 8.0 96 0.3 WNW 20 28 11 15 - - 1.4
25/09:30pm 8.8 3.7 7.6 92 0.6 WNW 24 35 13 19 - - 0.8
25/09:00pm 9.0 1.3 7.3 89 0.8 WNW 37 50 20 27 - - 0.8
25/08:41pm 9.5 1.8 7.1 85 1.1 NW 37 56 20 30 - - 0.8
25/08:30pm 9.7 2.0 7.0 83 1.3 NW 37 50 20 27 - - 0.4
25/08:00pm 10.6 4.7 6.0 73 2.1 NNW 26 37 14 20 - - 0.0
25/07:30pm 11.1 4.7 5.4 68 2.6 NNW 28 46 15 25 - - 0.0
25/07:17pm 11.0 4.3 5.7 70 2.5 NNW 30 52 16 28 - - 0.0
25/07:00pm 10.9 4.2 5.7 70 2.4 NNW 30 39 16 21 - - 0.0
25/06:40pm 10.9 4.6 5.7 70 2.4 NNW 28 46 15 25 - - 0.0
25/06:30pm 10.8 4.9 5.8 71 2.3 N 26 35 14 19 - - 0.0
25/06:00pm 10.5 5.0 6.1 74 2.1 N 24 33 13 18 - - 0.0
25/05:30pm 10.0 4.9 6.2 77 1.8 N 22 30 12 16 - - 0.0
25/05:00pm 10.8 5.4 6.2 73 2.2 NNW 24 33 13 18 - - 0.0
25/04:30pm 11.1 4.4 5.4 68 2.6 NW 30 44 16 24 - - 0.0
25/04:15pm 10.9 4.6 5.9 71 2.3 NNW 28 46 15 25 - - 0.0
25/04:00pm 11.3 6.1 5.6 68 2.7 NW 22 33 12 18 - - 0.0
25/03:30pm 11.2 5.7 5.9 70 2.5 NW 24 33 13 18 - - 0.0
25/03:00pm 11.4 5.1 5.7 68 2.7 NW 28 41 15 22 - - 0.0
25/02:30pm 11.2 5.2 5.5 68 2.6 NW 26 39 14 21 - - 0.0
25/02:00pm 11.5 6.4 6.0 69 2.6 NW 22 33 12 18 - - 0.0
25/01:30pm 11.1 6.1 6.3 72 2.3 WNW 22 39 12 21 - - 0.0
25/01:00pm 11.2 5.5 6.5 73 2.2 WNW 26 35 14 19 - - 0.0
25/12:30pm 11.3 6.0 7.0 75 2.1 WNW 24 32 13 17 - - 0.0
25/12:00pm 10.3 5.3 6.6 78 1.7 WNW 22 32 12 17 - - 0.0
25/11:30am 9.8 5.5 7.2 84 1.2 WNW 19 30 10 16 - - 0.0
25/11:00am 9.4 5.6 7.7 89 0.8 WNW 17 22 9 12 - - 0.0
25/10:30am 8.8 5.0 7.4 91 0.7 WNW 17 30 9 16 - - 0.0
25/10:00am 8.6 4.8 7.5 93 0.5 W 17 24 9 13 - - 0.0
25/09:30am 8.2 4.1 7.8 97 0.2 W 19 24 10 13 - - 0.0
25/09:00am 7.7 5.1 7.6 99 0.0 W 11 15 6 8 - - 4.4
25/08:30am 7.3 3.4 7.3 100 0.0 WNW 17 22 9 12 - - 4.4
25/08:00am 6.9 4.1 6.9 100 0.0 NW 11 17 6 9 - - 4.4
25/07:30am 6.6 4.1 6.5 99 0.0 WNW 9 15 5 8 - - 4.4
25/07:00am 6.3 3.3 6.2 99 0.0 NW 11 15 6 8 - - 4.4
25/06:30am 6.0 2.6 5.9 99 0.0 NW 13 19 7 10 - - 4.4
25/06:00am 5.3 2.5 5.2 99 0.0 NW 9 15 5 8 - - 4.4
25/05:30am 4.4 1.4 4.3 99 0.0 NW 9 11 5 6 - - 4.4
25/05:00am 5.0 1.8 4.9 99 0.0 WNW 11 15 6 8 - - 4.4
25/04:30am 6.0 2.9 5.7 98 0.1 WNW 11 17 6 9 - - 4.2
25/04:00am 6.6 3.3 6.5 99 0.0 W 13 19 7 10 - - 4.2
25/03:30am 6.5 3.2 6.5 100 0.0 WNW 13 20 7 11 - - 4.2
25/03:00am 6.6 3.7 6.6 100 0.0 NW 11 17 6 9 - - 4.2
25/02:30am 6.2 3.6 6.1 99 0.0 N 9 13 5 7 - - 4.2
25/02:00am 6.0 3.4 5.9 99 0.0 N 9 11 5 6 - - 4.0
25/01:30am 6.0 3.3 5.7 98 0.1 N 9 11 5 6 - - 3.8
25/01:00am 6.2 3.5 5.6 96 0.3 N 9 13 5 7 - - 3.4
25/12:30am 6.4 2.5 5.5 94 0.4 NNW 15 24 8 13 - - 3.2
25/12:00am 6.6 1.8 5.6 93 0.4 NW 20 28 11 15 - - 2.8
 
Date/Time
EST
Temp
°C
App
Temp
°C
Dew
Point
°C
Rel
Hum
%
Delta-T
°C
Wind Press
QNH
hPa
Press
MSL
hPa
Rain since
9am
mm
Dir  Spd
km/h
Gust
km/h
Spd
kts
Gust
kts
24/11:30pm 6.7 2.8 5.3 91 0.6 NNW 15 20 8 11 - - 2.2
24/11:00pm 5.7 2.1 5.0 95 0.3 N 13 19 7 10 - - 2.2
24/10:30pm 5.2 2.6 4.0 92 0.5 N 7 11 4 6 - - 2.2
24/10:00pm 6.3 2.7 4.8 90 0.7 NNW 13 17 7 9 - - 2.2
24/09:30pm 6.3 2.7 4.9 91 0.6 NNW 13 20 7 11 - - 2.2
24/09:00pm 6.5 3.0 5.5 93 0.4 NNW 13 20 7 11 - - 2.2
24/08:30pm 6.7 2.1 5.7 93 0.4 NNW 19 24 10 13 - - 2.2
24/08:10pm 6.7 -0.1 5.2 90 0.7 WNW 30 48 16 26 - - 2.0
24/08:00pm 7.1 0.0 5.4 89 0.8 NW 32 41 17 22 - - 1.8
24/07:59pm 7.2 0.1 5.7 90 0.7 NW 32 41 17 22 - - 1.6
24/07:30pm 7.7 4.5 7.0 95 0.3 NNW 13 19 7 10 - - 0.8
24/07:00pm 7.8 3.5 6.9 94 0.4 N 19 28 10 15 - - 0.6
24/06:30pm 8.0 4.3 6.5 90 0.7 NNE 15 19 8 10 - - 0.0
24/06:00pm 8.3 4.2 6.3 87 0.9 NNE 17 22 9 12 - - 0.0
24/05:30pm 9.1 5.4 6.4 83 1.3 NNE 15 22 8 12 - - 0.0
24/05:00pm 9.4 5.8 5.2 75 1.9 N 13 15 7 8 - - 0.0
24/04:30pm 10.1 6.4 6.1 76 1.9 N 15 22 8 12 - - 0.0
24/04:00pm 10.8 6.3 6.2 73 2.2 N 19 22 10 12 - - 0.0
24/03:30pm 10.7 6.4 6.8 77 1.9 N 19 24 10 13 - - 0.0
24/03:00pm 10.0 5.4 6.5 79 1.6 N 20 28 11 15 - - 0.0
24/02:30pm 10.6 6.0 6.6 76 1.9 N 20 28 11 15 - - 0.0
24/02:00pm 10.7 6.1 6.5 75 2.0 N 20 28 11 15 - - 0.0
24/01:30pm 9.9 5.2 5.9 76 1.9 N 20 32 11 17 - - 0.0
24/01:00pm 8.6 4.7 5.5 81 1.4 NE 15 20 8 11 - - 0.0
24/12:30pm 7.8 3.1 5.1 83 1.2 N 19 24 10 13 - - 0.0
24/12:00pm 7.4 2.6 4.9 84 1.1 NNE 19 26 10 14 - - 0.0
24/11:30am 7.5 2.7 4.8 83 1.2 N 19 24 10 13 - - 0.0
24/11:00am 6.7 2.6 4.2 84 1.1 NE 15 20 8 11 - - 0.0
24/10:30am 6.0 2.3 4.3 89 0.7 NE 13 19 7 10 - - 0.0
24/10:00am 4.9 1.1 3.7 92 0.5 NE 13 17 7 9 - - 0.0
24/09:30am 4.0 0.9 3.4 96 0.2 NE 9 13 5 7 - - 0.0
24/09:00am 3.4 0.2 3.1 98 0.1 ENE 9 11 5 6 - - 0.2
24/08:30am 2.7 -1.0 2.6 99 0.0 NE 11 13 6 7 - - 0.0
24/08:00am 2.0 -1.4 1.9 99 0.0 NE 9 13 5 7 - - 0.0
24/07:30am 1.5 -2.0 1.4 99 0.0 NE 9 13 5 7 - - 0.0
24/07:00am 1.2 -2.3 1.1 99 0.0 E 9 13 5 7 - - 0.0
24/06:30am 0.8 -2.4 0.7 99 0.0 NE 7 11 4 6 - - 0.0
24/06:00am 0.6 -3.0 0.5 99 0.0 NE 9 9 5 5 - - 0.0
24/05:30am 0.0 -3.3 -0.1 99 0.0 NNE 7 11 4 6 - - 0.0
24/05:00am 0.4 -1.5 0.3 99 0.0 CALM 0 0 0 0 - - 0.0
24/04:30am -0.2 -2.3 -0.5 98 0.1 CALM 0 0 0 0 - - 0.0
24/04:00am 0.7 -1.2 0.6 99 0.0 CALM 0 0 0 0 - - 0.0
24/03:30am 0.1 -1.9 -0.2 98 0.1 CALM 0 0 0 0 - - 0.0
24/03:00am 0.9 -2.1 0.6 98 0.1 NNW 6 7 3 4 - - 0.0
24/02:30am 1.2 -2.0 0.9 98 0.1 NNW 7 7 4 4 - - 0.0
24/02:00am 0.7 -2.6 0.3 97 0.1 NNE 7 7 4 4 - - 0.0
24/01:30am 1.1 -1.9 0.7 97 0.1 N 6 7 3 4 - - 0.0
24/01:00am 0.9 -2.4 0.3 96 0.2 N 7 7 4 4 - - 0.0
24/12:30am 1.3 -1.7 0.6 95 0.3 NNE 6 7 3 4 - - 0.0
24/12:00am 1.8 -0.4 0.8 93 0.4 NNW 2 6 1 3 - - 0.0
 
Date/Time
EST
Temp
°C
App
Temp
°C
Dew
Point
°C
Rel
Hum
%
Delta-T
°C
Wind Press
QNH
hPa
Press
MSL
hPa
Rain since
9am
mm
Dir  Spd
km/h
Gust
km/h
Spd
kts
Gust
kts
23/11:30pm 2.3 -0.9 1.0 91 0.5 N 7 9 4 5 - - 0.0
23/11:00pm 2.6 -0.6 0.7 87 0.7 W 7 9 4 5 - - 0.0
23/10:30pm 3.5 0.0 1.4 86 0.8 W 9 11 5 6 - - 0.0
23/10:00pm 4.1 -0.1 1.6 84 1.0 WNW 13 17 7 9 - - 0.0
23/09:30pm 4.9 0.3 1.7 80 1.3 W 15 22 8 12 - - 0.0
23/09:00pm 5.1 0.2 2.1 81 1.2 WNW 17 20 9 11 - - 0.0
23/08:30pm 5.3 0.8 2.1 80 1.3 WNW 15 22 8 12 - - 0.0
23/08:00pm 6.2 1.0 2.3 76 1.6 WNW 19 26 10 14 - - 0.0
23/07:30pm 6.8 1.6 2.3 73 1.9 WNW 19 28 10 15 - - 0.0
23/07:00pm 6.7 2.2 2.2 73 1.9 WNW 15 20 8 11 - - 0.0
23/06:30pm 7.7 2.8 2.2 68 2.3 WNW 17 22 9 12 - - 0.0

Other Formats:

Comma delimited format used in spreadsheet applications
http://www.bom.gov.au/fwo/IDV60801/IDV60801.95836.axf

JavaScript Object Notation format (JSON) in row-major order
http://www.bom.gov.au/fwo/IDV60801/IDV60801.95836.json